METAR Data
IDs: Format: Raw Decoded Include TAF

Data at: 0613 UTC 24 Sep 2018

METAR for:TJNR (Roosevelt Roads Arpt, PR, US)
Text:TJNR 240553Z AUTO 07006KT 10SM SCT028 BKN035 28/25 A2996 RMK AO2 SLP144 T02780250 10283 20272 58007 $
Temperature: 27.8°C ( 82°F)
Dewpoint: 25.0°C ( 77°F) [RH = 85%]
Pressure (altimeter):29.96 inches Hg (1014.6 mb) [Sea level pressure: 1014.4 mb]
Winds:from the ENE (70 degrees) at 7 MPH (6 knots; 3.1 m/s)
Visibility:10 or more sm (16+ km)
Ceiling:3500 feet AGL
Clouds: scattered clouds at 2800 feet AGL, broken clouds at 3500 feet AGL
QC Flag:automated observation with no human augmentation; SOME DATA ABOVE MAY BE INACCURATE!!!"$" is an indication the sensor requires maintenance.